createdAt,value
2023-01-17T00:00:07.666Z,70.85
2023-01-17T00:00:48.175Z,70.72
2023-01-17T00:01:29.599Z,70.68
2023-01-17T00:02:03.592Z,70.95
2023-01-17T00:02:37.336Z,70.96
2023-01-17T00:03:10.798Z,70.78
2023-01-17T00:04:03.570Z,70.73
2023-01-17T00:04:55.978Z,70.72
2023-01-17T00:05:48.017Z,70.64
2023-01-17T00:06:41.936Z,70.89
2023-01-17T00:07:56.857Z,70.88
2023-01-17T00:08:48.899Z,70.77
2023-01-17T00:09:41.051Z,70.88
2023-01-17T00:10:17.614Z,70.67
2023-01-17T00:10:51.015Z,70.57
2023-01-17T00:11:24.310Z,70.77
2023-01-17T00:11:59.223Z,70.68
2023-01-17T00:12:33.177Z,70.58
2023-01-17T00:13:06.609Z,70.63
2023-01-17T00:13:40.113Z,70.72
2023-01-17T00:14:13.488Z,70.68
2023-01-17T00:14:47.851Z,70.69
2023-01-17T00:15:23.068Z,70.43
2023-01-17T00:15:56.447Z,70.53
2023-01-17T00:16:29.909Z,70.42
2023-01-17T00:17:03.594Z,70.49
2023-01-17T00:17:36.981Z,70.28
2023-01-17T00:18:10.318Z,70.23
2023-01-17T00:19:03.806Z,70.27
2023-01-17T00:19:55.671Z,70.20
2023-01-17T00:20:49.469Z,69.87
2023-01-17T00:21:41.411Z,69.59
2023-01-17T00:22:50.991Z,69.51
2023-01-17T00:23:44.821Z,69.98
2023-01-17T00:24:36.818Z,70.21
2023-01-17T00:25:34.186Z,70.36
2023-01-17T00:26:15.350Z,70.18
2023-01-17T00:27:07.422Z,70.33
2023-01-17T00:27:40.739Z,70.33
2023-01-17T00:28:14.145Z,70.23
2023-01-17T00:28:47.906Z,70.30
2023-01-17T00:29:21.244Z,70.28
2023-01-17T00:29:54.601Z,70.35
2023-01-17T00:30:29.158Z,70.14
2023-01-17T00:31:04.242Z,70.27
2023-01-17T00:31:37.642Z,70.20
2023-01-17T00:32:10.882Z,69.82
2023-01-17T00:32:44.209Z,69.83
2023-01-17T00:33:18.262Z,70.02
2023-01-17T00:33:51.564Z,70.01
2023-01-17T00:34:24.779Z,69.71
2023-01-17T00:34:58.197Z,69.28
2023-01-17T00:35:32.995Z,69.43
2023-01-17T00:36:07.137Z,69.72
2023-01-17T00:36:40.446Z,69.58
2023-01-17T00:37:13.719Z,69.83
2023-01-17T00:37:47.102Z,69.63
2023-01-17T00:38:22.926Z,69.55
2023-01-17T00:38:56.242Z,69.51
2023-01-17T00:39:29.492Z,69.42
2023-01-17T00:40:02.756Z,69.45
2023-01-17T00:40:38.347Z,69.76
2023-01-17T00:41:13.692Z,69.71
2023-01-17T00:41:46.982Z,69.48
2023-01-17T00:42:20.244Z,69.45
2023-01-17T00:42:53.579Z,69.38
2023-01-17T00:43:45.594Z,69.42
2023-01-17T00:44:37.868Z,69.33
2023-01-17T00:45:30.273Z,69.24
2023-01-17T00:46:23.418Z,69.33
2023-01-17T00:47:15.412Z,69.23
2023-01-17T00:48:07.497Z,68.85
2023-01-17T00:49:00.721Z,69.40
2023-01-17T00:49:52.692Z,69.40
2023-01-17T00:50:44.877Z,69.35
2023-01-17T00:51:37.725Z,69.32
2023-01-17T00:52:29.978Z,69.15
2023-01-17T00:53:26.026Z,68.96
2023-01-17T00:54:19.044Z,68.92
2023-01-17T00:55:11.062Z,69.09
2023-01-17T00:56:03.171Z,69.06
2023-01-17T00:56:55.529Z,69.40
2023-01-17T00:57:47.792Z,69.47
2023-01-17T00:58:39.704Z,69.24
2023-01-17T00:59:31.740Z,69.54
2023-01-17T01:00:24.139Z,69.60
2023-01-17T01:01:16.514Z,69.71
2023-01-17T01:02:09.062Z,69.55
2023-01-17T01:03:00.998Z,69.83
2023-01-17T01:03:53.356Z,69.54
2023-01-17T01:04:45.361Z,69.79
2023-01-17T01:05:37.616Z,69.34
2023-01-17T01:06:30.145Z,69.71
2023-01-17T01:07:25.187Z,69.54
2023-01-17T01:08:18.015Z,69.64
2023-01-17T01:09:10.912Z,69.78
2023-01-17T01:10:04.581Z,69.69
2023-01-17T01:10:58.710Z,69.75
2023-01-17T01:11:50.964Z,69.74
2023-01-17T01:12:46.214Z,69.82
2023-01-17T01:13:38.087Z,69.89
2023-01-17T01:14:30.116Z,69.78
2023-01-17T01:15:22.356Z,69.64
2023-01-17T01:16:14.696Z,69.57
2023-01-17T01:17:06.859Z,69.45
2023-01-17T01:17:58.813Z,69.50
2023-01-17T01:18:50.835Z,69.63
2023-01-17T01:19:43.104Z,69.26
2023-01-17T01:20:35.464Z,69.75
2023-01-17T01:21:27.781Z,69.46
2023-01-17T01:22:20.206Z,69.23
2023-01-17T01:23:12.315Z,69.39
2023-01-17T01:24:04.681Z,69.30
2023-01-17T01:24:56.691Z,69.48
2023-01-17T01:25:48.647Z,69.44
2023-01-17T01:26:41.457Z,69.10
2023-01-17T01:27:33.885Z,69.20
2023-01-17T01:28:29.361Z,69.23
2023-01-17T01:29:21.838Z,69.45
2023-01-17T01:30:13.872Z,69.42
2023-01-17T01:31:05.995Z,69.45
2023-01-17T01:31:57.808Z,69.46
2023-01-17T01:32:53.792Z,69.55
2023-01-17T01:33:27.082Z,69.54
2023-01-17T01:34:00.518Z,69.44
2023-01-17T01:34:34.092Z,69.41
2023-01-17T01:35:07.880Z,69.02
2023-01-17T01:35:42.190Z,69.21
2023-01-17T01:36:15.475Z,69.04
2023-01-17T01:36:48.946Z,68.94
2023-01-17T01:37:22.268Z,69.19
2023-01-17T01:37:55.717Z,69.14
2023-01-17T01:38:30.492Z,69.29
2023-01-17T01:39:06.157Z,69.09
2023-01-17T01:39:39.646Z,69.37
2023-01-17T01:40:16.534Z,68.86
2023-01-17T01:40:55.982Z,68.81
2023-01-17T01:41:30.039Z,68.92
2023-01-17T01:42:04.217Z,69.17
2023-01-17T01:42:37.979Z,69.43
2023-01-17T01:43:13.841Z,69.32
2023-01-17T01:43:53.148Z,69.61
2023-01-17T01:44:48.183Z,69.56
2023-01-17T01:45:28.782Z,69.79
2023-01-17T01:46:02.315Z,69.65
2023-01-17T01:46:40.060Z,69.57
2023-01-17T01:47:24.366Z,69.56
2023-01-17T01:48:03.655Z,69.95
2023-01-17T01:48:42.236Z,69.63
2023-01-17T01:49:22.144Z,69.48
2023-01-17T01:49:55.822Z,69.44
2023-01-17T01:50:33.943Z,69.46
2023-01-17T01:51:14.205Z,69.77
2023-01-17T01:52:03.623Z,69.45
2023-01-17T01:52:43.339Z,69.49
2023-01-17T01:53:19.830Z,69.65
2023-01-17T01:53:59.961Z,69.86
2023-01-17T01:54:43.100Z,69.54
2023-01-17T01:55:19.179Z,69.98
2023-01-17T01:55:53.223Z,69.71
2023-01-17T01:56:27.733Z,69.63
2023-01-17T01:57:04.020Z,69.41
2023-01-17T01:57:44.705Z,69.14
2023-01-17T01:58:28.751Z,69.23
2023-01-17T01:59:07.306Z,69.62
2023-01-17T01:59:46.323Z,69.44
2023-01-17T02:00:29.878Z,69.63
2023-01-17T02:01:04.450Z,69.53
2023-01-17T02:01:37.919Z,69.72
2023-01-17T02:02:11.442Z,69.87
2023-01-17T02:02:48.737Z,69.85
2023-01-17T02:03:27.955Z,69.72
2023-01-17T02:04:03.003Z,69.94
2023-01-17T02:04:37.312Z,69.78
2023-01-17T02:05:14.322Z,69.73
2023-01-17T02:05:48.127Z,70.16
2023-01-17T02:06:34.020Z,69.94
2023-01-17T02:07:14.135Z,69.77
2023-01-17T02:07:59.729Z,70.22
2023-01-17T02:08:33.695Z,70.19
2023-01-17T02:09:10.025Z,70.04
2023-01-17T02:09:43.881Z,69.97
2023-01-17T02:10:17.339Z,70.17
2023-01-17T02:10:51.368Z,70.04
2023-01-17T02:11:24.857Z,70.07
2023-01-17T02:11:58.586Z,70.23
2023-01-17T02:12:32.364Z,70.23
2023-01-17T02:13:07.295Z,70.11
2023-01-17T02:13:41.988Z,70.18
2023-01-17T02:14:17.207Z,70.58
2023-01-17T02:14:50.659Z,70.34
2023-01-17T02:15:42.075Z,70.52
2023-01-17T02:16:25.401Z,70.46
2023-01-17T02:17:28.974Z,70.47
2023-01-17T02:18:08.294Z,70.53
2023-01-17T02:19:03.057Z,70.64
2023-01-17T02:20:05.536Z,70.37
2023-01-17T02:20:58.869Z,70.58
2023-01-17T02:21:34.982Z,70.47
2023-01-17T02:22:20.406Z,70.74
2023-01-17T02:23:16.707Z,69.98
2023-01-17T02:24:18.206Z,70.38
2023-01-17T02:25:00.477Z,70.67
2023-01-17T02:25:41.595Z,70.87
2023-01-17T02:26:34.646Z,70.56
2023-01-17T02:27:27.413Z,71.03
2023-01-17T02:28:00.872Z,71.09
2023-01-17T02:28:43.496Z,71.12
2023-01-17T02:29:45.837Z,71.00
2023-01-17T02:30:37.460Z,70.92
2023-01-17T02:31:16.863Z,71.46
2023-01-17T02:31:58.998Z,71.34
2023-01-17T02:33:01.975Z,71.41
2023-01-17T02:33:54.035Z,71.67
2023-01-17T02:34:48.966Z,71.43
2023-01-17T02:35:38.675Z,71.41
2023-01-17T02:36:44.968Z,71.39
2023-01-17T02:37:18.353Z,71.55
2023-01-17T02:38:00.758Z,71.67
2023-01-17T02:39:19.079Z,71.57
2023-01-17T02:40:05.183Z,71.47
2023-01-17T02:40:58.148Z,71.56
2023-01-17T02:41:37.093Z,71.76
2023-01-17T02:42:17.355Z,71.50
2023-01-17T02:42:58.276Z,71.46
2023-01-17T02:43:33.066Z,71.66
2023-01-17T02:44:11.399Z,71.77
2023-01-17T02:44:45.376Z,71.73
2023-01-17T02:45:20.394Z,71.56
2023-01-17T02:45:53.769Z,71.86
2023-01-17T02:46:27.310Z,71.52
2023-01-17T02:47:00.650Z,71.47
2023-01-17T02:47:34.396Z,71.60
2023-01-17T02:48:10.756Z,71.83
2023-01-17T02:48:45.182Z,71.47
2023-01-17T03:01:50.064Z,70.09
2023-01-17T03:03:28.807Z,69.97
2023-01-17T03:04:27.725Z,70.23
2023-01-17T03:05:30.749Z,70.37
2023-01-17T03:06:13.149Z,70.18
2023-01-17T03:07:42.425Z,70.32
2023-01-17T03:08:30.330Z,70.14
2023-01-17T03:10:26.298Z,69.70
2023-01-17T03:11:07.611Z,69.60
2023-01-17T03:11:44.088Z,69.56
2023-01-17T03:12:30.752Z,69.44
2023-01-17T03:13:56.621Z,69.43
2023-01-17T03:14:48.345Z,69.68
2023-01-17T03:15:54.863Z,69.64
2023-01-17T03:16:43.759Z,69.52
2023-01-17T03:17:43.642Z,69.32
2023-01-17T03:18:38.013Z,69.33
2023-01-17T03:19:42.225Z,69.32
2023-01-17T03:20:45.539Z,69.15
2023-01-17T03:21:46.731Z,69.17
2023-01-17T03:22:21.684Z,69.54
2023-01-17T03:22:54.978Z,69.51
2023-01-17T03:23:27.266Z,69.41
2023-01-17T03:24:28.351Z,69.37
2023-01-17T03:25:06.741Z,69.47
2023-01-17T03:25:54.113Z,69.59
2023-01-17T03:26:26.463Z,69.66
2023-01-17T03:27:24.941Z,69.75
2023-01-17T03:28:14.257Z,69.86
2023-01-17T03:29:08.920Z,69.95
2023-01-17T03:30:37.648Z,69.87
2023-01-17T03:31:49.126Z,69.91
2023-01-17T03:32:55.597Z,70.05
2023-01-17T03:33:28.249Z,70.18
2023-01-17T03:34:24.981Z,70.03
2023-01-17T03:35:12.832Z,70.17
2023-01-17T03:36:10.404Z,70.17
2023-01-17T03:36:46.332Z,70.29
2023-01-17T03:37:39.369Z,70.34
2023-01-17T03:38:11.729Z,70.27
2023-01-17T03:38:52.243Z,70.43
2023-01-17T03:39:28.253Z,70.42
2023-01-17T03:40:41.056Z,70.40
2023-01-17T03:41:13.636Z,70.38
2023-01-17T03:41:50.581Z,70.53
2023-01-17T03:42:26.271Z,70.57
2023-01-17T03:42:58.724Z,70.40
2023-01-17T03:43:31.150Z,70.26
2023-01-17T03:44:28.294Z,70.43
2023-01-17T03:45:24.805Z,70.66
2023-01-17T03:46:22.705Z,70.59
2023-01-17T03:46:55.146Z,70.79
2023-01-17T03:47:27.407Z,70.68
2023-01-17T03:48:25.909Z,70.91
2023-01-17T03:49:23.513Z,70.59
2023-01-17T03:50:38.788Z,70.79
2023-01-17T03:51:19.983Z,71.15
2023-01-17T03:51:57.535Z,70.84
2023-01-17T03:52:42.972Z,70.92
2023-01-17T03:53:27.958Z,70.69
2023-01-17T03:54:59.641Z,71.01
2023-01-17T03:55:41.397Z,71.02
2023-01-17T03:56:30.040Z,70.72
2023-01-17T03:57:25.457Z,70.85
2023-01-17T03:58:58.181Z,70.86
2023-01-17T03:59:37.414Z,70.92
2023-01-17T04:00:30.116Z,70.99
2023-01-17T04:01:20.004Z,70.92
2023-01-17T04:02:32.855Z,70.76
2023-01-17T04:04:55.637Z,71.20
2023-01-17T04:05:31.452Z,71.28
2023-01-17T04:06:42.350Z,71.18
2023-01-17T04:07:19.201Z,71.48
2023-01-17T04:07:57.941Z,71.37
2023-01-17T04:08:30.281Z,71.33
2023-01-17T04:09:27.017Z,71.69
2023-01-17T04:10:42.479Z,71.38
2023-01-17T04:11:19.288Z,71.72
2023-01-17T04:13:03.901Z,71.62
2023-01-17T04:13:36.045Z,71.59
2023-01-17T04:14:08.227Z,71.68
2023-01-17T04:14:40.705Z,71.66
2023-01-17T04:15:13.008Z,71.70
2023-01-17T04:15:47.950Z,71.64
2023-01-17T04:16:24.083Z,71.59
2023-01-17T04:16:56.794Z,71.51
2023-01-17T04:17:28.904Z,71.61
2023-01-17T04:18:01.256Z,71.54
2023-01-17T04:18:33.664Z,71.51
2023-01-17T04:19:05.764Z,71.32
2023-01-17T04:19:37.992Z,71.42
2023-01-17T04:20:18.222Z,71.46
2023-01-17T04:20:51.108Z,71.32
2023-01-17T04:21:25.708Z,71.52
2023-01-17T04:21:57.731Z,71.53
2023-01-17T04:22:31.203Z,71.46
2023-01-17T04:23:04.191Z,71.48
2023-01-17T04:23:36.277Z,71.56
2023-01-17T04:24:08.419Z,71.58
2023-01-17T04:24:40.648Z,71.61
2023-01-17T04:25:12.893Z,71.51
2023-01-17T04:25:45.047Z,71.53
2023-01-17T04:26:17.367Z,71.28
2023-01-17T04:26:49.391Z,71.54
2023-01-17T04:27:21.502Z,71.43
2023-01-17T04:27:54.139Z,71.49
2023-01-17T04:28:26.666Z,71.51
2023-01-17T04:28:58.574Z,71.52
2023-01-17T04:29:30.659Z,71.38
2023-01-17T04:30:03.191Z,71.46
2023-01-17T04:30:35.326Z,71.47
2023-01-17T04:31:07.534Z,71.74
2023-01-17T04:31:39.610Z,71.65
2023-01-17T04:32:14.331Z,71.62
2023-01-17T04:32:46.512Z,71.61
2023-01-17T04:33:18.525Z,71.57
2023-01-17T04:33:50.551Z,71.47
2023-01-17T04:34:22.665Z,71.37
2023-01-17T04:34:54.751Z,71.59
2023-01-17T04:35:29.651Z,71.59
2023-01-17T04:36:01.607Z,71.63
2023-01-17T04:36:37.676Z,71.69
2023-01-17T04:37:09.826Z,71.60
2023-01-17T04:37:42.385Z,71.68
2023-01-17T04:38:14.407Z,71.77
2023-01-17T04:38:46.707Z,71.60
2023-01-17T04:39:18.843Z,71.60
2023-01-17T04:39:50.887Z,71.62
2023-01-17T04:40:23.336Z,71.45
2023-01-17T04:40:55.475Z,71.55
2023-01-17T04:41:27.497Z,71.60
2023-01-17T04:41:59.635Z,71.57
2023-01-17T04:42:31.769Z,71.76
2023-01-17T04:43:03.939Z,71.50
2023-01-17T04:43:36.019Z,71.71
2023-01-17T04:44:08.013Z,71.71
2023-01-17T04:44:40.138Z,71.61
2023-01-17T04:45:12.945Z,71.91
2023-01-17T04:45:44.914Z,71.53
2023-01-17T04:46:17.072Z,71.65
2023-01-17T04:46:49.120Z,71.70
2023-01-17T04:47:21.214Z,71.75
2023-01-17T04:47:53.346Z,71.55
2023-01-17T04:48:26.711Z,71.84
2023-01-17T04:49:00.024Z,71.59
2023-01-17T04:49:32.267Z,71.79
2023-01-17T04:50:04.897Z,71.82
2023-01-17T04:50:36.973Z,71.84
2023-01-17T04:51:09.069Z,71.47
2023-01-17T04:51:41.314Z,71.48
2023-01-17T04:52:14.604Z,71.64
2023-01-17T04:52:46.791Z,71.67
2023-01-17T04:53:18.852Z,71.77
2023-01-17T04:53:50.865Z,71.58
2023-01-17T04:54:22.879Z,71.81
2023-01-17T04:54:54.979Z,71.79
2023-01-17T04:55:27.103Z,71.83
2023-01-17T04:55:59.176Z,72.03
2023-01-17T04:56:31.205Z,71.58
2023-01-17T04:57:03.341Z,71.46
2023-01-17T04:57:35.594Z,71.45
2023-01-17T04:58:07.708Z,71.79
2023-01-17T04:58:39.737Z,71.82
2023-01-17T04:59:12.038Z,71.71
2023-01-17T04:59:45.736Z,71.40
2023-01-17T05:00:18.397Z,71.77
2023-01-17T05:00:51.307Z,71.88
2023-01-17T05:01:23.698Z,71.75
2023-01-17T05:01:55.894Z,71.93
2023-01-17T05:02:28.211Z,71.81
2023-01-17T05:03:00.339Z,72.05
2023-01-17T05:03:33.239Z,72.05
2023-01-17T05:04:05.408Z,71.83
2023-01-17T05:04:37.814Z,71.84
2023-01-17T05:05:12.987Z,71.82
2023-01-17T05:05:45.230Z,71.93
2023-01-17T05:06:17.408Z,71.96
2023-01-17T05:06:49.454Z,71.92
2023-01-17T05:07:21.547Z,71.74
2023-01-17T05:07:57.659Z,72.04
2023-01-17T05:08:29.839Z,71.79
2023-01-17T05:09:02.545Z,71.70
2023-01-17T05:09:34.780Z,71.98
2023-01-17T05:10:07.266Z,71.76
2023-01-17T05:10:39.436Z,71.73
2023-01-17T05:11:12.487Z,71.88
2023-01-17T05:11:44.546Z,71.82
2023-01-17T05:12:16.660Z,72.13
2023-01-17T05:12:55.523Z,72.25
2023-01-17T05:13:27.540Z,71.95
2023-01-17T05:13:59.857Z,72.25
2023-01-17T05:14:34.681Z,72.07
2023-01-17T05:15:07.223Z,72.05
2023-01-17T05:15:39.608Z,72.29
2023-01-17T05:16:11.781Z,72.25
2023-01-17T05:16:43.860Z,72.27
2023-01-17T05:17:15.987Z,72.14
2023-01-17T05:17:48.077Z,72.37
2023-01-17T05:18:20.293Z,72.04
2023-01-17T05:18:53.558Z,72.29
2023-01-17T05:19:26.552Z,72.17
2023-01-17T05:19:58.689Z,72.24
2023-01-17T05:20:31.030Z,72.19
2023-01-17T05:21:06.473Z,72.32
2023-01-17T05:21:38.778Z,72.37
2023-01-17T05:22:14.716Z,72.34
2023-01-17T05:22:55.370Z,72.01
2023-01-17T05:23:27.514Z,72.18
2023-01-17T05:23:59.488Z,72.21
2023-01-17T05:24:31.875Z,72.36
2023-01-17T05:25:04.163Z,72.41
2023-01-17T05:25:36.343Z,72.50
2023-01-17T05:26:08.930Z,72.37
2023-01-17T05:26:42.551Z,72.20
2023-01-17T05:27:14.954Z,72.23
2023-01-17T05:27:47.236Z,72.15
2023-01-17T05:28:19.549Z,72.30
2023-01-17T05:28:51.853Z,72.38
2023-01-17T05:29:23.883Z,72.29
2023-01-17T05:29:58.385Z,71.84
2023-01-17T05:30:32.872Z,72.17
2023-01-17T05:31:05.412Z,72.09
2023-01-17T05:31:37.779Z,72.08
2023-01-17T05:32:09.879Z,72.03
2023-01-17T05:32:44.937Z,72.31
2023-01-17T05:33:17.006Z,71.90
2023-01-17T05:33:49.078Z,71.98
2023-01-17T05:34:23.743Z,71.80
2023-01-17T05:34:55.938Z,71.81
2023-01-17T05:35:32.045Z,71.84
2023-01-17T05:36:04.355Z,71.99
2023-01-17T05:36:36.803Z,71.79
2023-01-17T05:37:09.292Z,72.02
2023-01-17T05:37:48.596Z,71.77
2023-01-17T05:38:22.109Z,71.77
2023-01-17T05:38:54.124Z,71.83
2023-01-17T05:39:26.685Z,71.84
2023-01-17T05:39:58.942Z,71.91
2023-01-17T05:40:32.625Z,71.82
2023-01-17T05:41:05.329Z,71.99
2023-01-17T05:41:40.469Z,71.64
2023-01-17T05:42:12.514Z,71.96
2023-01-17T05:42:48.805Z,71.50
2023-01-17T05:43:22.331Z,71.57
2023-01-17T05:43:54.421Z,71.86
2023-01-17T05:44:27.177Z,71.70
2023-01-17T05:44:59.251Z,71.63
2023-01-17T05:45:33.183Z,71.83
2023-01-17T05:46:05.599Z,71.98
2023-01-17T05:46:37.885Z,71.93
2023-01-17T05:47:10.082Z,71.86
2023-01-17T05:47:50.536Z,71.71
2023-01-17T05:48:22.684Z,71.80
2023-01-17T05:48:54.847Z,71.78
2023-01-17T05:49:26.969Z,71.80
2023-01-17T05:49:59.108Z,71.55
2023-01-17T05:50:36.672Z,71.94
2023-01-17T05:51:09.006Z,72.12
2023-01-17T05:51:41.236Z,71.98
2023-01-17T05:52:18.537Z,72.08
2023-01-17T05:53:02.135Z,72.04
2023-01-17T05:54:13.457Z,72.24
2023-01-17T05:55:42.297Z,72.51
2023-01-17T05:56:25.498Z,72.65
2023-01-17T05:57:06.633Z,72.63
2023-01-17T05:58:00.167Z,72.71
2023-01-17T05:58:41.503Z,72.76
2023-01-17T05:59:37.071Z,72.53
2023-01-17T06:01:31.091Z,72.75
2023-01-17T06:02:26.902Z,72.81
2023-01-17T06:03:59.088Z,72.64
2023-01-17T06:04:38.290Z,72.92
2023-01-17T06:05:18.143Z,72.85
2023-01-17T06:05:50.661Z,72.95
2023-01-17T06:06:27.846Z,72.94
2023-01-17T06:07:23.305Z,72.65
2023-01-17T06:07:58.195Z,72.91
2023-01-17T06:08:36.017Z,72.72
2023-01-17T06:09:12.963Z,72.80
2023-01-17T06:10:25.637Z,72.80
2023-01-17T06:10:59.171Z,72.69
2023-01-17T06:12:26.678Z,72.40
2023-01-17T06:13:24.833Z,72.70
2023-01-17T06:14:31.777Z,72.50
2023-01-17T06:15:27.005Z,72.58
2023-01-17T06:16:13.276Z,72.72
2023-01-17T06:16:57.302Z,72.43
2023-01-17T06:17:38.829Z,72.71
2023-01-17T06:18:38.216Z,72.42
2023-01-17T06:19:13.514Z,72.36
2023-01-17T06:19:50.865Z,72.64
2023-01-17T06:20:37.893Z,72.53
2023-01-17T06:21:37.354Z,72.68
2023-01-17T06:22:18.004Z,72.62
2023-01-17T06:22:50.914Z,72.48
2023-01-17T06:23:29.816Z,72.52
2023-01-17T06:24:29.965Z,72.37
2023-01-17T06:25:18.999Z,72.35
2023-01-17T06:25:58.173Z,72.69
2023-01-17T06:27:26.091Z,72.70
2023-01-17T06:27:58.308Z,72.69
2023-01-17T06:28:41.146Z,72.60
2023-01-17T06:29:30.825Z,72.24
2023-01-17T06:30:28.795Z,71.98
2023-01-17T06:31:07.505Z,72.31
2023-01-17T06:31:56.405Z,72.25
2023-01-17T06:32:31.159Z,72.47
2023-01-17T06:33:12.765Z,72.47
2023-01-17T06:34:53.579Z,72.40
2023-01-17T06:35:33.649Z,72.28
2023-01-17T06:36:18.579Z,72.25
2023-01-17T06:36:50.861Z,72.20
2023-01-17T06:37:33.733Z,71.98
2023-01-17T06:38:11.653Z,72.34
2023-01-17T06:39:26.956Z,72.35
2023-01-17T06:39:59.307Z,72.09
2023-01-17T06:40:54.052Z,72.08
2023-01-17T06:41:29.759Z,72.03
2023-01-17T06:42:06.877Z,72.50
2023-01-17T06:43:22.122Z,71.99
2023-01-17T06:44:27.895Z,72.12
2023-01-17T06:45:07.635Z,72.18
2023-01-17T06:45:41.911Z,72.16
2023-01-17T06:46:23.282Z,72.26
2023-01-17T06:46:57.610Z,72.05
2023-01-17T06:47:30.069Z,72.07
2023-01-17T06:48:08.787Z,71.99
2023-01-17T06:49:01.933Z,72.17
2023-01-17T06:49:44.855Z,72.18
2023-01-17T06:50:30.293Z,72.05
2023-01-17T06:51:05.987Z,72.08
2023-01-17T06:51:54.691Z,72.22
2023-01-17T06:52:42.526Z,71.93
2023-01-17T06:53:37.535Z,71.99
2023-01-17T06:54:09.924Z,72.02
2023-01-17T06:54:46.725Z,71.87
2023-01-17T06:55:41.387Z,72.27
2023-01-17T06:56:27.528Z,72.18
2023-01-17T06:58:29.936Z,72.17
2023-01-17T06:59:19.267Z,72.27
2023-01-17T06:59:51.669Z,72.47
2023-01-17T07:00:41.352Z,72.18
2023-01-17T07:01:15.438Z,72.13
2023-01-17T07:01:50.734Z,71.98
2023-01-17T07:02:28.874Z,72.36
2023-01-17T07:03:12.279Z,72.04
2023-01-17T07:03:55.315Z,72.05
2023-01-17T07:04:42.888Z,72.04
2023-01-17T07:05:29.856Z,72.02
2023-01-17T07:06:09.532Z,71.90
2023-01-17T07:06:57.009Z,72.21
2023-01-17T07:07:38.742Z,71.63
2023-01-17T07:08:11.341Z,71.68
2023-01-17T07:08:44.400Z,71.87
2023-01-17T07:09:39.836Z,72.18
2023-01-17T07:10:51.666Z,71.95
2023-01-17T07:11:30.256Z,72.05
2023-01-17T07:12:19.822Z,72.06
2023-01-17T07:13:03.600Z,72.10
2023-01-17T07:13:58.834Z,72.24
2023-01-17T07:14:45.906Z,72.16
2023-01-17T07:15:31.873Z,72.15
2023-01-17T07:16:12.411Z,72.29
2023-01-17T07:17:10.031Z,72.11
2023-01-17T07:18:11.568Z,72.29
2023-01-17T07:18:45.416Z,72.30
2023-01-17T07:19:26.280Z,72.21
2023-01-17T07:20:26.368Z,72.07
2023-01-17T07:21:27.101Z,72.25
2023-01-17T07:21:59.681Z,72.30
2023-01-17T07:22:39.964Z,72.11
2023-01-17T07:23:12.931Z,72.39
2023-01-17T07:24:10.397Z,72.00
2023-01-17T07:24:42.615Z,72.11
2023-01-17T07:25:48.599Z,72.11
2023-01-17T07:26:46.009Z,72.31
2023-01-17T07:27:24.118Z,72.30
2023-01-17T07:28:16.940Z,72.26
2023-01-17T07:28:50.076Z,72.14
2023-01-17T07:29:31.759Z,72.18
2023-01-17T07:30:55.814Z,72.30
2023-01-17T07:31:39.888Z,72.38
2023-01-17T07:32:26.814Z,72.22
2023-01-17T07:33:24.024Z,72.39
2023-01-17T07:34:07.646Z,72.39
2023-01-17T07:34:40.176Z,72.37
2023-01-17T07:35:12.680Z,72.30
2023-01-17T07:37:19.502Z,72.27
2023-01-17T07:38:09.239Z,72.29
2023-01-17T07:39:13.734Z,72.49
2023-01-17T07:40:09.710Z,72.05
2023-01-17T07:41:14.353Z,72.43
2023-01-17T07:42:11.694Z,72.04
2023-01-17T07:43:13.928Z,72.34
2023-01-17T07:44:01.481Z,72.32
2023-01-17T07:44:45.608Z,72.25
2023-01-17T07:45:42.714Z,72.22
2023-01-17T07:46:19.030Z,72.06
2023-01-17T07:47:21.888Z,72.03
2023-01-17T07:48:29.495Z,72.02
2023-01-17T07:49:13.698Z,72.18
2023-01-17T07:49:51.534Z,72.12
2023-01-17T07:50:27.463Z,71.90
2023-01-17T07:51:09.536Z,72.07
2023-01-17T07:51:55.022Z,72.09
2023-01-17T07:52:40.124Z,72.28
2023-01-17T07:53:12.477Z,71.88
2023-01-17T07:53:44.950Z,71.92
2023-01-17T07:54:30.837Z,72.11
2023-01-17T07:55:14.059Z,71.89
2023-01-17T07:56:18.801Z,71.99
2023-01-17T07:56:51.235Z,71.82
2023-01-17T07:57:27.787Z,71.79
2023-01-17T07:58:02.276Z,71.77
2023-01-17T07:58:39.165Z,71.41
2023-01-17T07:59:24.033Z,71.10
2023-01-17T08:00:28.589Z,71.05
2023-01-17T08:01:19.443Z,70.88
2023-01-17T08:01:52.301Z,70.28
2023-01-17T08:02:30.918Z,70.43
2023-01-17T08:03:08.390Z,70.42
2023-01-17T08:04:12.258Z,70.00
2023-01-17T08:04:59.101Z,70.06
2023-01-17T08:05:31.443Z,69.57
2023-01-17T08:06:09.360Z,69.26
2023-01-17T08:06:46.691Z,68.84
2023-01-17T08:07:26.677Z,66.16
2023-01-17T08:08:09.223Z,67.05
2023-01-17T08:09:05.107Z,66.08
2023-01-17T08:09:51.924Z,65.75
2023-01-17T08:10:29.819Z,66.07
2023-01-17T08:11:18.991Z,66.02
2023-01-17T08:11:51.766Z,66.63
2023-01-17T08:13:21.447Z,62.74
2023-01-17T08:14:10.992Z,62.92
2023-01-17T08:14:49.560Z,63.40
2023-01-17T08:15:28.223Z,63.40
2023-01-17T08:16:12.662Z,62.56
2023-01-17T08:16:56.156Z,62.37
2023-01-17T08:17:28.713Z,60.87
2023-01-17T08:18:27.790Z,61.02
2023-01-17T08:19:00.114Z,60.59
2023-01-17T08:19:49.668Z,60.37
2023-01-17T08:20:27.987Z,59.88
2023-01-17T08:21:29.295Z,60.42
2023-01-17T08:22:06.025Z,60.41
2023-01-17T08:22:38.926Z,60.44
2023-01-17T08:24:29.743Z,59.87
2023-01-17T08:25:04.907Z,58.21
2023-01-17T08:25:43.228Z,58.08
2023-01-17T08:26:28.273Z,55.84
2023-01-17T08:27:11.175Z,55.97
2023-01-17T08:27:56.714Z,55.63
2023-01-17T08:28:43.938Z,56.16
2023-01-17T08:29:27.724Z,56.35
2023-01-17T08:30:25.196Z,55.84
2023-01-17T08:31:43.319Z,54.52
2023-01-17T08:32:23.415Z,55.01
2023-01-17T08:32:56.235Z,54.92
2023-01-17T08:33:38.171Z,53.73
2023-01-17T08:34:13.871Z,52.88
2023-01-17T08:35:27.589Z,53.39
2023-01-17T08:35:59.877Z,53.30
2023-01-17T08:36:49.927Z,54.25
2023-01-17T08:37:31.476Z,54.08
2023-01-17T08:38:36.156Z,53.42
2023-01-17T08:39:19.691Z,53.85
2023-01-17T08:39:57.605Z,53.34
2023-01-17T08:40:43.175Z,52.71
2023-01-17T08:41:26.691Z,52.40
2023-01-17T08:42:11.517Z,52.99
2023-01-17T08:43:07.801Z,52.89
2023-01-17T08:44:28.116Z,52.45
2023-01-17T08:45:29.656Z,52.26
2023-01-17T08:46:08.340Z,51.11
2023-01-17T08:46:50.328Z,52.09
2023-01-17T08:47:29.987Z,52.04
2023-01-17T08:48:31.636Z,51.48
2023-01-17T08:49:19.057Z,51.87
2023-01-17T08:50:43.902Z,51.60
2023-01-17T08:51:26.709Z,50.27
2023-01-17T08:51:58.988Z,51.12
2023-01-17T08:52:31.294Z,50.89
2023-01-17T08:53:25.183Z,50.98
2023-01-17T08:53:59.642Z,51.09
2023-01-17T08:54:38.448Z,51.31
2023-01-17T08:55:17.623Z,50.43
2023-01-17T08:56:01.787Z,50.99
2023-01-17T08:56:49.806Z,51.19
2023-01-17T08:57:37.682Z,50.99
2023-01-17T08:58:30.683Z,50.31
2023-01-17T08:59:13.626Z,51.48
2023-01-17T09:00:48.861Z,51.86
2023-01-17T09:01:21.396Z,51.54
2023-01-17T09:01:56.505Z,51.42
2023-01-17T09:02:31.178Z,51.18
2023-01-17T09:03:19.307Z,51.44
2023-01-17T09:03:58.658Z,51.16
2023-01-17T09:05:25.524Z,51.36
2023-01-17T09:07:01.550Z,50.74
2023-01-17T09:07:59.475Z,51.12
2023-01-17T09:08:59.422Z,50.54
2023-01-17T09:09:33.219Z,51.70
2023-01-17T09:10:31.367Z,51.98
2023-01-17T09:11:20.185Z,51.32
2023-01-17T09:13:18.885Z,49.56
2023-01-17T09:13:53.319Z,50.05
2023-01-17T09:14:27.446Z,50.03
2023-01-17T09:15:12.281Z,50.87
2023-01-17T09:16:22.672Z,51.59
2023-01-17T09:17:14.480Z,51.35
2023-01-17T09:18:09.258Z,50.32
2023-01-17T09:18:41.494Z,49.85
2023-01-17T09:19:13.776Z,49.35
2023-01-17T09:19:54.100Z,49.33
2023-01-17T09:20:38.493Z,50.17
2023-01-17T09:21:54.100Z,49.47
2023-01-17T09:22:31.641Z,48.99
2023-01-17T09:23:21.432Z,49.35
2023-01-17T09:24:19.153Z,49.16
2023-01-17T09:25:21.274Z,49.93
2023-01-17T09:34:49.792Z,49.06
2023-01-17T09:35:43.281Z,49.17
2023-01-17T09:35:54.618Z,48.77
2023-01-17T09:36:40.777Z,49.54
2023-01-17T09:37:31.808Z,47.89
2023-01-17T09:38:30.310Z,48.62
2023-01-17T09:39:31.196Z,48.84
2023-01-17T09:49:49.036Z,46.71
2023-01-17T10:00:08.100Z,46.50
2023-01-17T10:01:18.115Z,46.51
2023-01-17T10:02:50.923Z,47.11
2023-01-17T10:04:51.960Z,48.25
2023-01-17T10:05:45.955Z,48.62
2023-01-17T10:06:59.944Z,48.96
2023-01-17T10:08:59.881Z,49.08
2023-01-17T10:09:48.383Z,48.90
2023-01-17T10:10:41.498Z,48.99